Terminal Aerodrome Forecast
Issued by NWS

Home | Current Version | Previous Version | Text Only | Print | Product List | Glossary On
Versions: 1 2 3 4 5 6 7 8 9 10 11 12 13 14 15 16 17 18 19 20 21 22 23 24 25 26 27 28 29 30
000
FTUS44 KLIX 011600 AAA
TAFHDC
TAF AMD
KHDC 011617Z 0116/0212 11006KT 5SM BR OVC004
     FM011900 13005KT P6SM BKN008
     FM021000 00000KT 1SM BR OVC003
      TEMPO 0210/0212 09005KT 1SM BR OVC001=

USA.gov is the U.S. government's official web portal to all federal, state and local government web resources and services.